Time;durP1;ratioP1;P1;durP2;ratioP2;P2;SDS_P1;SDS_P2;PMS_P1;PMS_P2;Temp;Humidity;BMP_temperature;BMP_pressure;BME280_temperature;BME280_humidity;BME280_pressure;Samples;Min_cycle;Max_cycle;Signal;HPM_P1;HPM_P2
2022/10/04 00:01:05;;;;;;;;;;;;;;;11.84;100.00;102275.56;5079191;28;19919;-66
2022/10/04 00:03:33;;;;;;;;;;;;;;;11.84;100.00;102284.38;5083004;28;19958;-67
2022/10/04 00:05:59;;;;;;;;;;;;;;;11.87;100.00;102278.31;5076575;28;19922;-67
2022/10/04 00:08:24;;;;;;;;;;;;;;;11.88;100.00;102281.03;5078338;28;20011;-66
2022/10/04 00:11:00;;;;;;;;;;;;;;;11.89;100.00;102277.50;5084533;28;19995;-66
2022/10/04 00:13:27;;;;;;;;;;;;;;;11.91;100.00;102272.28;5079774;28;19920;-66
2022/10/04 00:15:53;;;;;;;;;;;;;;;11.93;100.00;102273.25;5088233;28;19919;-66
2022/10/04 00:18:18;;;;;;;;;;;;;;;11.95;100.00;102267.22;5081421;28;19912;-67
2022/10/04 00:20:52;;;;;;;;;;;;;;;11.97;100.00;102272.53;5074642;28;19912;-67
2022/10/04 00:23:23;;;;;;;;;;;;;;;11.99;100.00;102268.19;5083952;28;19940;-66
2022/10/04 00:25:49;;;;;;;;;;;;;;;11.99;100.00;102262.91;5070161;28;20318;-67
2022/10/04 00:28:20;;;;;;;;;;;;;;;12.01;100.00;102263.88;5078643;28;19912;-66
2022/10/04 00:31:04;;;;;;;;;;;;;;;12.01;100.00;102263.88;5080905;28;19915;-67
2022/10/04 00:33:37;;;;;;;;;;;;;;;12.00;100.00;102263.84;5082251;28;19916;-67
2022/10/04 00:36:23;;;;;;;;;;;;;;;11.98;100.00;102266.44;5076146;28;20261;-68
2022/10/04 00:39:03;;;;;;;;;;;;;;;11.97;100.00;102272.53;5058029;28;19947;-66
2022/10/04 00:41:49;;;;;;;;;;;;;;;11.96;100.00;102268.09;5078747;28;20544;-66
2022/10/04 00:44:17;;;;;;;;;;;;;;;11.92;100.00;102272.38;5065547;28;20002;-66
2022/10/04 00:46:44;;;;;;;;;;;;;;;11.91;100.00;102277.56;5088529;28;19911;-67
2022/10/04 00:49:10;;;;;;;;;;;;;;;11.90;100.00;102267.88;5080360;28;20363;-66
2022/10/04 00:51:38;;;;;;;;;;;;;;;11.86;100.00;102261.59;5072058;28;19912;-66
2022/10/04 00:54:03;;;;;;;;;;;;;;;11.86;100.00;102258.06;5082121;28;19923;-65
2022/10/04 00:56:50;;;;;;;;;;;;;;;11.86;100.00;102260.72;5085135;28;19912;-66
2022/10/04 00:59:15;;;;;;;;;;;;;;;11.84;100.00;102250.06;5092462;28;20006;-66
2022/10/04 01:01:43;;;;;;;;;;;;;;;11.85;100.00;102249.25;5091307;28;19959;-66
2022/10/04 01:04:15;;;;;;;;;;;;;;;11.82;100.00;102250.03;5086386;28;20011;-66
2022/10/04 01:06:41;;;;;;;;;;;;;;;11.85;100.00;102248.34;5086825;28;19911;-66
2022/10/04 01:09:08;;;;;;;;;;;;;;;11.82;100.00;102234.22;5078498;28;19912;-66
2022/10/04 01:11:35;;;;;;;;;;;;;;;11.82;100.00;102233.31;5091893;28;19951;-65
2022/10/04 01:14:04;;;;;;;;;;;;;;;11.81;100.00;102229.81;5082960;28;20364;-66
2022/10/04 01:16:33;;;;;;;;;;;;;;;11.79;100.00;102228.84;5067306;28;19927;-66
2022/10/04 01:19:17;;;;;;;;;;;;;;;11.77;100.00;102234.91;5076725;28;19913;-65
2022/10/04 01:21:45;;;;;;;;;;;;;;;11.74;100.00;102230.41;5074809;28;20002;-66
2022/10/04 01:24:11;;;;;;;;;;;;;;;11.72;100.00;102226.84;5076056;28;19909;-66
2022/10/04 01:26:38;;;;;;;;;;;;;;;11.69;100.00;102216.16;5092107;28;19912;-67
2022/10/04 01:29:17;;;;;;;;;;;;;;;11.69;100.00;102210.00;5076080;28;19912;-66
2022/10/04 01:31:44;;;;;;;;;;;;;;;11.66;100.00;102216.06;5073367;28;19920;-67
2022/10/04 01:34:23;;;;;;;;;;;;;;;11.64;100.00;102215.13;5080263;28;19913;-67
2022/10/04 01:36:50;;;;;;;;;;;;;;;11.61;100.00;102201.81;5072196;28;19916;-67
2022/10/04 01:39:16;;;;;;;;;;;;;;;11.60;100.00;102198.31;5073822;28;19908;-65
2022/10/04 01:41:57;;;;;;;;;;;;;;;11.59;100.00;102193.88;5075224;28;19912;-65
2022/10/04 01:44:32;;;;;;;;;;;;;;;11.58;100.00;102189.44;5084633;28;20386;-66
2022/10/04 01:47:00;;;;;;;;;;;;;;;11.58;100.00;102196.47;5080066;28;20319;-66
2022/10/04 01:49:27;;;;;;;;;;;;;;;11.56;100.00;102182.34;5075585;28;20230;-67
2022/10/04 01:52:11;;;;;;;;;;;;;;;11.55;100.00;102175.28;5086072;28;19927;-66
2022/10/04 01:54:42;;;;;;;;;;;;;;;11.55;100.00;102170.88;5075870;28;19997;-67
2022/10/04 01:57:13;;;;;;;;;;;;;;;11.54;100.00;102162.94;5071464;28;19916;-67
2022/10/04 01:59:43;;;;;;;;;;;;;;;11.54;100.00;102162.94;5075445;28;19920;-67
2022/10/04 02:02:16;;;;;;;;;;;;;;;11.52;100.00;102149.72;5084651;28;20364;-67
2022/10/04 02:04:41;;;;;;;;;;;;;;;11.52;100.00;102144.44;5073404;28;19947;-67
2022/10/04 02:07:11;;;;;;;;;;;;;;;11.51;100.00;102136.47;5077071;28;19946;-67
2022/10/04 02:09:38;;;;;;;;;;;;;;;11.47;100.00;102130.19;5085815;28;20034;-65
2022/10/04 02:12:05;;;;;;;;;;;;;;;11.46;100.00;102124.03;5084200;28;22141;-65
2022/10/04 02:14:34;;;;;;;;;;;;;;;11.45;100.00;102118.72;5080250;28;19999;-66
2022/10/04 02:17:04;;;;;;;;;;;;;;;11.44;100.00;102109.91;5080095;28;19916;-66
2022/10/04 02:19:38;;;;;;;;;;;;;;;11.42;100.00;102113.31;5074773;28;19917;-67
2022/10/04 02:22:04;;;;;;;;;;;;;;;11.38;100.00;102104.44;5085982;28;20378;-67
2022/10/04 02:24:34;;;;;;;;;;;;;;;11.36;100.00;102106.13;5076069;28;19912;-66
2022/10/04 02:26:59;;;;;;;;;;;;;;;11.30;100.00;102108.56;5079350;28;20545;-67
2022/10/04 02:29:25;;;;;;;;;;;;;;;11.27;100.00;102111.06;5079895;28;19912;-65
2022/10/04 02:34:35;;;;;;;;;;;;;;;11.19;100.00;102097.66;5073895;28;19923;-67
2022/10/04 02:37:02;;;;;;;;;;;;;;;11.14;100.00;102100.09;5073070;28;20352;-66
2022/10/04 02:39:31;;;;;;;;;;;;;;;11.13;100.00;102097.44;5058144;28;19923;-67
2022/10/04 02:42:00;;;;;;;;;;;;;;;11.09;100.00;102093.78;5092877;28;19911;-67
2022/10/04 02:44:25;;;;;;;;;;;;;;;11.06;100.00;102085.78;5087501;28;19980;-67
2022/10/04 02:46:57;;;;;;;;;;;;;;;11.05;100.00;102081.34;5072200;28;19912;-67
2022/10/04 02:49:30;;;;;;;;;;;;;;;11.03;100.00;102074.22;5075013;28;19912;-66
2022/10/04 02:52:10;;;;;;;;;;;;;;;11.01;100.00;102066.28;5075003;28;19920;-67
2022/10/04 02:54:44;;;;;;;;;;;;;;;10.94;100.00;102061.66;5077491;28;19951;-67
2022/10/04 02:57:14;;;;;;;;;;;;;;;10.92;100.00;102061.59;5084848;28;19908;-66
2022/10/04 02:59:39;;;;;;;;;;;;;;;10.88;100.00;102064.97;5074079;28;19912;-66
2022/10/04 03:02:19;;;;;;;;;;;;;;;10.88;100.00;102069.34;5072578;28;19939;-66
2022/10/04 03:04:45;;;;;;;;;;;;;;;10.84;100.00;102070.97;5056768;28;20264;-66
2022/10/04 03:07:10;;;;;;;;;;;;;;;10.83;100.00;102060.41;5078255;28;19920;-66
2022/10/04 03:09:36;;;;;;;;;;;;;;;10.84;100.00;102056.91;5089193;28;20382;-66
2022/10/04 03:12:03;;;;;;;;;;;;;;;10.82;100.00;102050.69;5065736;28;20296;-66
2022/10/04 03:14:30;;;;;;;;;;;;;;;10.80;100.00;102034.84;5074415;28;20330;-66
2022/10/04 03:16:59;;;;;;;;;;;;;;;10.77;100.00;102040.91;5078732;28;19942;-66
2022/10/04 03:19:25;;;;;;;;;;;;;;;10.75;100.00;102042.56;5085660;28;19911;-66
2022/10/04 03:21:54;;;;;;;;;;;;;;;10.76;100.00;102044.38;5081630;28;20555;-66
2022/10/04 03:24:21;;;;;;;;;;;;;;;10.75;100.00;102031.16;5093390;28;20299;-67
2022/10/04 03:26:52;;;;;;;;;;;;;;;10.74;100.00;102035.53;5079038;28;19918;-66
2022/10/04 03:29:18;;;;;;;;;;;;;;;10.72;100.00;102037.22;5070867;28;19951;-66
2022/10/04 03:31:45;;;;;;;;;;;;;;;10.71;100.00;102024.88;5088463;28;19947;-66
2022/10/04 03:34:18;;;;;;;;;;;;;;;10.72;100.00;102021.41;5076628;28;19915;-66
2022/10/04 03:36:45;;;;;;;;;;;;;;;10.70;100.00;102016.94;5078359;28;19919;-67
2022/10/04 03:39:11;;;;;;;;;;;;;;;10.72;100.00;102016.16;5080200;28;19966;-66
2022/10/04 03:41:39;;;;;;;;;;;;;;;10.71;100.00;102019.63;5087075;28;20301;-66
2022/10/04 03:44:06;;;;;;;;;;;;;;;10.71;100.00;102013.47;5086932;28;19923;-66
2022/10/04 03:46:31;;;;;;;;;;;;;;;10.72;100.00;102021.41;5071366;28;20011;-67
2022/10/04 03:48:57;;;;;;;;;;;;;;;10.73;100.00;102017.94;5075559;28;20026;-66
2022/10/04 03:51:23;;;;;;;;;;;;;;;10.75;100.00;102020.63;5079144;28;19923;-66
2022/10/04 03:53:53;;;;;;;;;;;;;;;10.75;100.00;102026.78;5076277;28;19919;-66
2022/10/04 03:56:33;;;;;;;;;;;;;;;10.72;100.00;102024.03;5086122;28;19962;-66
2022/10/04 03:59:01;;;;;;;;;;;;;;;10.69;100.00;102016.06;5082920;28;19912;-67
2022/10/04 04:01:34;;;;;;;;;;;;;;;10.69;100.00;102015.13;5075978;28;19942;-67
2022/10/04 04:03:59;;;;;;;;;;;;;;;10.70;100.00;102012.59;5071896;28;20045;-66
2022/10/04 04:06:26;;;;;;;;;;;;;;;10.69;100.00;102016.06;5083409;28;19916;-67
2022/10/04 04:08:53;;;;;;;;;;;;;;;10.65;100.00;102019.41;5078566;28;19919;-66
2022/10/04 04:11:23;;;;;;;;;;;;;;;10.65;100.00;102024.69;5076761;28;19957;-66
2022/10/04 04:13:53;;;;;;;;;;;;;;;10.66;100.00;102015.91;5066870;28;19947;-66
2022/10/04 04:16:19;;;;;;;;;;;;;;;10.65;100.00;102019.41;5069065;28;19916;-66
2022/10/04 04:18:47;;;;;;;;;;;;;;;10.64;100.00;102022.88;5069531;28;19921;-66
2022/10/04 04:21:16;;;;;;;;;;;;;;;10.62;100.00;102022.84;5061466;28;20318;-66
2022/10/04 04:23:49;;;;;;;;;;;;;;;10.61;100.00;102020.16;5072168;28;19974;-66
2022/10/04 04:26:34;;;;;;;;;;;;;;;10.59;100.00;102017.47;5068955;28;19916;-66
2022/10/04 04:29:02;;;;;;;;;;;;;;;10.59;100.00;102017.47;5064040;28;19920;-66
2022/10/04 04:31:32;;;;;;;;;;;;;;;10.56;100.00;102016.47;5070720;28;20304;-66
2022/10/04 04:34:02;;;;;;;;;;;;;;;10.57;100.00;102021.78;5061557;28;19917;-66
2022/10/04 04:36:28;;;;;;;;;;;;;;;10.55;100.00;102017.28;5060085;28;20418;-66
2022/10/04 04:41:49;;;;;;;;;;;;;;;10.57;100.00;102021.78;5067047;28;20401;-65
2022/10/04 04:44:17;;;;;;;;;;;;;;;10.58;100.00;102012.13;5057852;28;19939;-65
2022/10/04 04:46:46;;;;;;;;;;;;;;;10.61;100.00;102018.41;5054885;28;20311;-65
2022/10/04 04:49:14;;;;;;;;;;;;;;;10.61;100.00;102013.13;5043833;28;20412;-66
2022/10/04 04:51:40;;;;;;;;;;;;;;;10.64;100.00;102014.97;5056049;28;20317;-66
2022/10/04 04:54:06;;;;;;;;;;;;;;;10.65;100.00;102021.13;5052241;28;19912;-66
2022/10/04 04:56:32;;;;;;;;;;;;;;;10.68;100.00;102016.00;5053961;28;19996;-66
2022/10/04 04:58:58;;;;;;;;;;;;;;;10.68;100.00;102016.88;5057305;28;19916;-66
2022/10/04 05:01:34;;;;;;;;;;;;;;;10.71;100.00;102016.97;5063189;28;20288;-66
2022/10/04 05:04:00;;;;;;;;;;;;;;;10.70;100.00;102015.22;5061039;28;19999;-66
2022/10/04 05:06:26;;;;;;;;;;;;;;;10.72;100.00;102018.78;5047010;28;19913;-66
2022/10/04 05:08:51;;;;;;;;;;;;;;;10.72;100.00;102017.91;5053760;28;19923;-66
2022/10/04 05:11:18;;;;;;;;;;;;;;;10.72;100.00;102013.50;5066804;28;19916;-66
2022/10/04 05:13:49;;;;;;;;;;;;;;;10.68;100.00;102019.50;5067402;28;19912;-66
2022/10/04 05:16:15;;;;;;;;;;;;;;;10.68;100.00;102014.25;5061019;28;19916;-68
2022/10/04 05:18:40;;;;;;;;;;;;;;;10.68;100.00;102009.00;5050984;28;20295;-67
2022/10/04 05:21:12;;;;;;;;;;;;;;;10.67;100.00;102004.56;5052609;28;20027;-68
2022/10/04 05:23:37;;;;;;;;;;;;;;;10.62;100.00;102003.50;5052380;28;19916;-67
2022/10/04 05:26:03;;;;;;;;;;;;;;;10.58;100.00;102009.50;5052219;28;19920;-66
2022/10/04 05:28:29;;;;;;;;;;;;;;;10.57;100.00;102005.09;5033874;28;19916;-66
2022/10/04 05:31:03;;;;;;;;;;;;;;;10.56;100.00;101998.91;5035272;28;19913;-68
2022/10/04 05:33:38;;;;;;;;;;;;;;;10.54;100.00;101999.69;5050294;28;19913;-68
2022/10/04 05:36:03;;;;;;;;;;;;;;;10.51;100.00;101994.34;5052642;28;19961;-68
2022/10/04 05:38:28;;;;;;;;;;;;;;;10.53;100.00;101992.66;5050364;28;20412;-68
2022/10/04 05:40:55;;;;;;;;;;;;;;;10.51;100.00;101989.06;5051840;28;19973;-68
2022/10/04 05:43:30;;;;;;;;;;;;;;;10.51;100.00;101989.06;5051880;28;19912;-63
2022/10/04 05:46:11;;;;;;;;;;;;;;;10.50;100.00;101976.75;5052989;28;19920;-64
2022/10/04 05:48:38;;;;;;;;;;;;;;;10.49;100.00;101980.25;5052360;28;20565;-67
2022/10/04 05:51:11;;;;;;;;;;;;;;;10.48;100.00;101979.34;5053455;28;19912;-67
2022/10/04 05:53:37;;;;;;;;;;;;;;;10.47;100.00;101972.28;5055605;28;19959;-66
2022/10/04 05:56:03;;;;;;;;;;;;;;;10.45;100.00;101977.47;5055335;28;19967;-67
2022/10/04 05:58:38;;;;;;;;;;;;;;;10.43;100.00;101973.91;5055615;28;19916;-67
2022/10/04 06:01:14;;;;;;;;;;;;;;;10.43;100.00;101973.91;5051741;28;19920;-67
2022/10/04 06:03:47;;;;;;;;;;;;;;;10.41;100.00;101969.44;5053360;28;19917;-67
2022/10/04 06:06:18;;;;;;;;;;;;;;;10.41;100.00;101972.06;5056269;28;19920;-67
2022/10/04 06:09:02;;;;;;;;;;;;;;;10.41;100.00;101977.34;5056701;28;20367;-66
2022/10/04 06:11:46;;;;;;;;;;;;;;;10.41;100.00;101964.19;5062265;28;20343;-67
2022/10/04 06:14:24;;;;;;;;;;;;;;;10.40;100.00;101958.00;5061482;28;19980;-66
2022/10/04 06:17:08;;;;;;;;;;;;;;;10.39;100.00;101966.75;5060996;28;19957;-66
2022/10/04 06:19:50;;;;;;;;;;;;;;;10.38;100.00;101966.72;5059515;28;19913;-66
2022/10/04 06:22:15;;;;;;;;;;;;;;;10.37;100.00;101968.41;5063153;28;19959;-67
2022/10/04 06:24:43;;;;;;;;;;;;;;;10.34;100.00;101960.41;5040007;28;19936;-67
2022/10/04 06:27:28;;;;;;;;;;;;;;;10.34;100.00;101956.88;5061494;28;19966;-66
2022/10/04 06:30:04;;;;;;;;;;;;;;;10.33;100.00;101952.44;5036278;28;19912;-66
2022/10/04 06:32:36;;;;;;;;;;;;;;;10.32;100.00;101950.66;5055973;28;19917;-66
2022/10/04 06:35:16;;;;;;;;;;;;;;;10.27;100.00;101961.03;5057748;28;19913;-66
2022/10/04 06:38:13;;;;;;;;;;;;;;;10.29;100.00;101957.63;5053990;28;19915;-66
2022/10/04 06:41:11;;;;;;;;;;;;;;;10.27;100.00;101958.41;5014320;28;19917;-66
2022/10/04 06:43:45;;;;;;;;;;;;;;;10.28;100.00;101953.19;5007274;28;19974;-65
2022/10/04 06:46:34;;;;;;;;;;;;;;;10.26;100.00;101951.34;5054717;28;19920;-66
2022/10/04 06:49:12;;;;;;;;;;;;;;;10.29;100.00;101951.44;5049290;28;20368;-66
2022/10/04 06:51:39;;;;;;;;;;;;;;;10.32;100.00;101959.44;5041847;28;19923;-65
2022/10/04 06:54:31;;;;;;;;;;;;;;;10.35;100.00;101956.97;5056556;28;19912;-66
2022/10/04 06:57:12;;;;;;;;;;;;;;;10.40;100.00;101955.38;5073999;28;19935;-65
2022/10/04 06:59:58;;;;;;;;;;;;;;;10.46;100.00;101960.84;5064712;28;20414;-67
2022/10/04 07:02:34;;;;;;;;;;;;;;;10.56;100.00;101956.81;5038591;28;20387;-66
2022/10/04 07:05:29;;;;;;;;;;;;;;;10.61;100.00;101959.63;5055904;28;19913;-67
2022/10/04 07:08:05;;;;;;;;;;;;;;;10.69;100.00;101957.22;5052615;28;20365;-66
2022/10/04 07:10:46;;;;;;;;;;;;;;;10.76;100.00;101954.84;5051873;28;20298;-66
2022/10/04 07:13:17;;;;;;;;;;;;;;;10.82;100.00;101953.28;5062747;28;19916;-66
2022/10/04 07:15:55;;;;;;;;;;;;;;;10.91;100.00;101964.13;5059297;28;19908;-66
2022/10/04 07:18:24;;;;;;;;;;;;;;;10.98;100.00;101963.47;5073002;28;19942;-66
2022/10/04 07:20:52;;;;;;;;;;;;;;;11.05;100.00;101960.19;5073876;28;19948;-66
2022/10/04 07:23:23;;;;;;;;;;;;;;;11.14;100.00;101964.88;5055454;28;19912;-66
2022/10/04 07:25:52;;;;;;;;;;;;;;;11.21;100.00;101960.69;5073334;28;19912;-66
2022/10/04 07:31:12;;;;;;;;;;;;;;;11.37;100.00;101954.19;5063394;28;19920;-66
2022/10/04 07:33:43;;;;;;;;;;;;;;;11.38;100.00;101962.13;5075321;28;19912;-67
2022/10/04 07:36:14;;;;;;;;;;;;;;;11.43;100.00;101971.03;5074629;28;19935;-67
2022/10/04 07:38:46;;;;;;;;;;;;;;;11.47;100.00;101972.03;5074437;28;19992;-65
2022/10/04 07:41:17;;;;;;;;;;;;;;;11.54;100.00;101978.41;5056572;28;19912;-65
2022/10/04 07:43:50;;;;;;;;;;;;;;;11.66;100.00;101976.13;5073365;28;19912;-65
2022/10/04 07:46:36;;;;;;;;;;;;;;;11.71;100.00;101981.56;5063838;28;19909;-66
2022/10/04 07:49:01;;;;;;;;;;;;;;;11.82;100.00;101977.50;5070777;28;20295;-66
2022/10/04 07:51:39;;;;;;;;;;;;;;;11.85;100.00;101976.69;5072908;28;19916;-66
2022/10/04 07:54:32;;;;;;;;;;;;;;;11.89;100.00;101982.09;5064067;28;20414;-66
2022/10/04 07:57:00;;;;;;;;;;;;;;;11.89;100.00;101975.94;5042470;28;19912;-66
2022/10/04 07:59:25;;;;;;;;;;;;;;;11.87;100.00;101973.25;5068454;28;19913;-67
2022/10/04 08:01:56;;;;;;;;;;;;;;;11.90;100.00;101977.75;5069676;28;20026;-66
2022/10/04 08:04:37;;;;;;;;;;;;;;;11.94;100.00;101991.09;5071730;28;19912;-65
2022/10/04 08:07:12;;;;;;;;;;;;;;;11.94;100.00;101990.16;5074506;28;19916;-66
2022/10/04 08:09:51;;;;;;;;;;;;;;;11.98;100.00;101987.69;5073644;28;20375;-67
2022/10/04 08:12:40;;;;;;;;;;;;;;;12.04;100.00;101980.81;5056895;28;20414;-66
2022/10/04 08:15:18;;;;;;;;;;;;;;;12.01;100.00;101978.97;5025761;28;19916;-66
2022/10/04 08:17:52;;;;;;;;;;;;;;;12.10;100.00;101971.31;5077274;28;19950;-67
2022/10/04 08:20:31;;;;;;;;;;;;;;;12.19;100.00;101964.50;5074074;28;19912;-67
2022/10/04 08:23:15;;;;;;;;;;;;;;;12.39;100.00;101973.88;5074780;28;20275;-66
2022/10/04 08:26:06;;;;;;;;;;;;;;;12.51;100.00;101975.03;5067886;28;19913;-67
2022/10/04 08:31:24;;;;;;;;;;;;;;;12.76;100.00;101974.84;5072355;28;19923;-66
2022/10/04 08:33:53;;;;;;;;;;;;;;;12.81;100.00;101975.84;5072936;28;19912;-66
2022/10/04 08:36:21;;;;;;;;;;;;;;;12.83;100.00;101975.88;5072938;28;19916;-67
2022/10/04 08:38:48;;;;;;;;;;;;;;;12.83;100.00;101960.03;5073742;28;19920;-67
2022/10/04 08:41:34;;;;;;;;;;;;;;;12.74;100.00;101970.41;5073440;28;19908;-67
2022/10/04 08:44:26;;;;;;;;;;;;;;;12.67;100.00;101974.63;5060886;28;20423;-67
2022/10/04 08:47:10;;;;;;;;;;;;;;;12.68;100.00;101976.38;5070145;28;19912;-67
2022/10/04 08:49:56;;;;;;;;;;;;;;;12.63;100.00;101983.31;5069223;28;19935;-67
2022/10/04 08:52:40;;;;;;;;;;;;;;;12.73;100.00;101973.88;5072217;28;19923;-67
2022/10/04 08:55:15;;;;;;;;;;;;;;;12.90;100.00;101969.00;5078733;28;20359;-66
2022/10/04 08:58:04;;;;;;;;;;;;;;;13.03;100.00;101976.38;5075084;28;19912;-67
2022/10/04 09:00:48;;;;;;;;;;;;;;;13.26;100.00;101971.66;5071963;28;19994;-67
2022/10/04 09:03:29;;;;;;;;;;;;;;;13.44;100.00;101973.91;5073399;28;20371;-67
2022/10/04 09:05:57;;;;;;;;;;;;;;;13.64;100.00;101973.44;5076224;28;19967;-67
2022/10/04 09:08:55;;;;;;;;;;;;;;;13.85;100.00;101970.38;5071356;28;19955;-67
2022/10/04 09:11:24;;;;;;;;;;;;;;;14.14;100.00;101975.38;5068837;28;20529;-67
2022/10/04 09:13:52;;;;;;;;;;;;;;;14.24;100.00;101971.13;5037691;28;19913;-67
2022/10/04 09:16:23;;;;;;;;;;;;;;;14.42;100.00;101971.50;5050269;28;19913;-67
2022/10/04 09:18:50;;;;;;;;;;;;;;;14.49;100.00;101968.09;5049313;28;19916;-68
2022/10/04 09:21:25;;;;;;;;;;;;;;;14.54;100.00;101969.94;5053341;28;20003;-67
2022/10/04 09:24:05;;;;;;;;;;;;;;;14.60;100.00;101959.47;5059408;28;19912;-67
2022/10/04 09:26:31;;;;;;;;;;;;;;;14.79;100.00;101958.94;5047782;28;19913;-67
2022/10/04 09:28:57;;;;;;;;;;;;;;;14.97;100.00;101952.16;5071272;28;19913;-67
2022/10/04 09:31:37;;;;;;;;;;;;;;;15.13;100.00;101940.03;5061901;28;19990;-66
2022/10/04 09:34:05;;;;;;;;;;;;;;;15.54;100.00;101930.91;5064162;28;19947;-66
2022/10/04 09:36:33;;;;;;;;;;;;;;;15.63;100.00;101933.69;5064698;28;19916;-67
2022/10/04 09:39:17;;;;;;;;;;;;;;;15.57;100.00;101930.94;5057111;28;19917;-66
2022/10/04 09:41:49;;;;;;;;;;;;;;;15.53;100.00;101927.34;5060406;28;19996;-67
2022/10/04 09:44:23;;;;;;;;;;;;;;;15.40;100.00;101931.59;5051907;28;19909;-65
2022/10/04 09:46:50;;;;;;;;;;;;;;;15.48;100.00;101937.91;5056978;28;19917;-67
2022/10/04 09:49:15;;;;;;;;;;;;;;;15.31;100.00;101952.69;5050303;28;19925;-66
2022/10/04 09:51:40;;;;;;;;;;;;;;;15.22;100.00;101949.88;5053815;28;19947;-66
2022/10/04 09:54:25;;;;;;;;;;;;;;;15.43;100.00;101950.19;5060555;28;19912;-67
2022/10/04 09:57:09;;;;;;;;;;;;;;;15.57;100.00;101961.03;5049510;28;19935;-67
2022/10/04 09:59:37;;;;;;;;;;;;;;;15.62;100.00;101959.31;5058834;28;20011;-67
2022/10/04 10:02:27;;;;;;;;;;;;;;;15.80;100.00;101958.72;5064325;28;19912;-68
2022/10/04 10:04:58;;;;;;;;;;;;;;;15.78;100.00;101957.75;5065661;28;20317;-67
2022/10/04 10:07:36;;;;;;;;;;;;;;;15.82;100.00;101951.66;5063500;28;19920;-67
2022/10/04 10:16:28;;;;;;;;;;;;;;;15.67;100.00;101959.38;5073717;28;19927;-67
2022/10/04 10:18:57;;;;;;;;;;;;;;;15.80;100.00;101960.47;5050414;28;19916;-67
2022/10/04 10:21:28;;;;;;;;;;;;;;;15.78;100.00;101951.56;5053144;28;19962;-67
2022/10/04 10:24:03;;;;;;;;;;;;;;;15.66;100.00;101944.34;5073965;28;19931;-67
2022/10/04 10:26:35;;;;;;;;;;;;;;;15.78;100.00;101941.84;5073981;28;20291;-67
2022/10/04 10:29:12;;;;;;;;;;;;;;;15.84;100.00;101936.66;5074039;28;19908;-67
2022/10/04 10:31:54;;;;;;;;;;;;;;;15.93;100.00;101942.94;5056492;28;20078;-67
2022/10/04 10:34:25;;;;;;;;;;;;;;;16.20;100.00;101942.38;5073575;28;19912;-66
2022/10/04 10:37:02;;;;;;;;;;;;;;;16.59;100.00;101930.34;5074416;28;20355;-66
2022/10/04 10:39:53;;;;;;;;;;;;;;;17.05;100.00;101931.63;5073714;28;19916;-66
2022/10/04 10:42:18;;;;;;;;;;;;;;;17.31;100.00;101940.69;5073799;28;19916;-66
2022/10/04 10:45:02;;;;;;;;;;;;;;;17.55;97.06;101933.69;5073032;28;20004;-67
2022/10/04 10:47:48;;;;;;;;;;;;;;;17.60;96.50;101931.09;5074153;28;19947;-67
2022/10/04 10:50:13;;;;;;;;;;;;;;;17.78;95.35;101936.47;5059929;28;20379;-67
2022/10/04 10:52:38;;;;;;;;;;;;;;;17.81;93.59;101939.16;5072671;28;19916;-67
2022/10/04 10:55:12;;;;;;;;;;;;;;;18.06;92.15;101933.94;5073136;28;19995;-67
2022/10/04 10:57:56;;;;;;;;;;;;;;;18.35;90.68;101935.78;5073700;28;19916;-67
2022/10/04 11:00:40;;;;;;;;;;;;;;;18.78;90.25;101927.81;5073805;28;19912;-67
2022/10/04 11:03:24;;;;;;;;;;;;;;;19.21;82.41;101930.47;5075655;28;20379;-66
2022/10/04 11:06:06;;;;;;;;;;;;;;;18.94;78.57;101930.53;5070767;28;20287;-66
2022/10/04 11:09:02;;;;;;;;;;;;;;;19.02;78.90;101928.75;5073525;28;20051;-66
2022/10/04 11:11:30;;;;;;;;;;;;;;;18.57;81.72;101936.72;5073692;28;19922;-66
2022/10/04 11:14:14;;;;;;;;;;;;;;;18.07;84.41;101938.41;5072137;28;20133;-66
2022/10/04 11:16:46;;;;;;;;;;;;;;;17.63;90.05;101931.09;5040261;28;19919;-67
2022/10/04 11:19:28;;;;;;;;;;;;;;;17.37;94.31;101939.81;5053869;28;20394;-66
2022/10/04 11:21:53;;;;;;;;;;;;;;;17.49;98.03;101926.59;5053669;28;20011;-66
2022/10/04 11:24:30;;;;;;;;;;;;;;;17.25;96.57;101931.78;5053689;28;19916;-67
2022/10/04 11:27:14;;;;;;;;;;;;;;;17.33;100.00;101932.69;5052577;28;20352;-66
2022/10/04 11:29:40;;;;;;;;;;;;;;;17.64;97.55;101930.22;5066257;28;19912;-66
2022/10/04 11:32:17;;;;;;;;;;;;;;;17.94;96.43;101934.78;5059144;28;19962;-66
2022/10/04 11:34:45;;;;;;;;;;;;;;;17.78;93.30;101915.16;5050434;28;19920;-66
2022/10/04 11:37:15;;;;;;;;;;;;;;;17.49;94.79;101925.72;5067546;28;19919;-66
2022/10/04 11:39:43;;;;;;;;;;;;;;;17.80;93.42;101921.41;5071839;28;20387;-67
2022/10/04 11:42:25;;;;;;;;;;;;;;;17.93;93.57;101916.16;5054509;28;19916;-67
2022/10/04 11:45:02;;;;;;;;;;;;;;;17.90;92.47;101924.09;5052072;28;19916;-67
2022/10/04 11:47:50;;;;;;;;;;;;;;;18.03;92.41;101920.63;5053135;28;20356;-67
2022/10/04 11:50:32;;;;;;;;;;;;;;;18.28;91.15;101928.69;5053226;28;20002;-66
2022/10/04 11:53:02;;;;;;;;;;;;;;;18.03;91.61;101924.19;5068761;28;19916;-67
2022/10/04 11:55:41;;;;;;;;;;;;;;;18.30;92.53;101918.91;5060485;28;19920;-66
2022/10/04 11:58:24;;;;;;;;;;;;;;;18.85;88.57;101894.94;5057819;28;19919;-66
2022/10/04 12:01:04;;;;;;;;;;;;;;;19.63;83.29;101892.09;5071209;28;19919;-67
2022/10/04 12:03:36;;;;;;;;;;;;;;;19.61;78.69;101897.44;5057529;28;19920;-67
2022/10/04 12:06:13;;;;;;;;;;;;;;;19.64;76.36;101899.22;5059207;28;19974;-66
2022/10/04 12:09:03;;;;;;;;;;;;;;;19.90;72.46;101900.91;5044420;28;19944;-67
2022/10/04 12:14:23;;;;;;;;;;;;;;;20.29;72.77;101897.09;5052709;28;20440;-66
2022/10/04 12:16:52;;;;;;;;;;;;;;;20.50;68.64;101888.03;5063198;28;19920;-66
2022/10/04 12:19:20;;;;;;;;;;;;;;;20.39;67.45;101884.56;5057314;28;19939;-67
2022/10/04 12:21:57;;;;;;;;;;;;;;;20.45;68.75;101879.16;5053331;28;20339;-66
2022/10/04 12:24:32;;;;;;;;;;;;;;;20.58;66.24;101877.28;5051712;28;19928;-67
2022/10/04 12:27:15;;;;;;;;;;;;;;;20.76;67.08;101873.56;5050359;28;19912;-66
2022/10/04 12:29:47;;;;;;;;;;;;;;;20.32;68.25;101866.78;5072618;28;19908;-67
2022/10/04 12:32:25;;;;;;;;;;;;;;;20.92;68.18;101857.38;5057896;28;20284;-66
2022/10/04 12:34:53;;;;;;;;;;;;;;;20.79;68.09;101854.81;5051621;28;19909;-66
2022/10/04 12:37:25;;;;;;;;;;;;;;;21.30;66.61;101862.31;5068818;28;19916;-67
2022/10/04 12:39:53;;;;;;;;;;;;;;;21.00;64.72;101863.56;5072360;28;19912;-67
2022/10/04 12:42:38;;;;;;;;;;;;;;;21.27;63.79;101853.41;5070420;28;20415;-67
2022/10/04 12:45:18;;;;;;;;;;;;;;;21.54;61.61;101849.53;5028310;28;19916;-67
2022/10/04 12:47:47;;;;;;;;;;;;;;;21.72;62.73;101851.97;5053401;28;20016;-67
2022/10/04 12:50:34;;;;;;;;;;;;;;;21.88;61.20;101847.28;5072708;28;19913;-67
2022/10/04 12:53:05;;;;;;;;;;;;;;;21.93;61.57;101843.66;5056771;28;19917;-66
2022/10/04 12:55:42;;;;;;;;;;;;;;;21.58;61.52;101842.34;5052805;28;19988;-66
2022/10/04 12:58:23;;;;;;;;;;;;;;;21.12;66.29;101844.69;5055411;28;20374;-66
2022/10/04 13:00:49;;;;;;;;;;;;;;;21.08;66.56;101852.75;5057413;28;19912;-66
2022/10/04 13:03:16;;;;;;;;;;;;;;;20.93;69.63;101848.44;5054284;28;19913;-66
2022/10/04 13:06:01;;;;;;;;;;;;;;;20.76;70.90;101840.59;5056608;28;19972;-66
2022/10/04 13:08:36;;;;;;;;;;;;;;;20.76;73.40;101836.13;5054616;28;19912;-66
2022/10/04 13:11:04;;;;;;;;;;;;;;;21.16;69.78;101822.31;5068603;28;20418;-66
2022/10/04 13:13:37;;;;;;;;;;;;;;;21.37;68.44;101812.25;5070044;28;19924;-67
2022/10/04 13:16:04;;;;;;;;;;;;;;;21.69;69.76;101819.88;5049294;28;19913;-67
2022/10/04 13:18:48;;;;;;;;;;;;;;;21.11;69.47;101810.78;5055152;28;19917;-67